This is the latest recevied weather packets stored in our database for station/object FW0690. If no packets are shown the sender has not sent any weather packets the latest 10 day(s).
| Time | Temp. | Humidity | Pressure | Rain* | Wind** | Luminosity | Snow |
|---|---|---|---|---|---|---|---|
| 1778058881 | 25.56° C | 27% | 1013.5 hPa | - | - | 27 W/m² | - |
| 1778058521 | 25.56° C | 27% | 1013.5 hPa | - | - | 38 W/m² | - |
| 1778058161 | 25.56° C | 28% | 1013.5 hPa | - | - | 49 W/m² | - |
| 1778057801 | 25.56° C | 28% | 1013.5 hPa | - | - | 62 W/m² | - |
| 1778057441 | 25° C | 29% | 1013.5 hPa | - | - | 52 W/m² | - |
| 1778057081 | 23.89° C | 29% | 1013.4 hPa | - | - | 24 W/m² | - |
| 1778056721 | 23.89° C | 29% | 1013.5 hPa | - | - | 24 W/m² | - |
| 1778056361 | 24.44° C | 31% | 1013.5 hPa | - | - | 24 W/m² | - |
| 1778056001 | 24.44° C | 31% | 1013.4 hPa | - | - | 24 W/m² | - |
| 1778055641 | 23.89° C | 32% | 1013.4 hPa | - | - | 24 W/m² | - |
| 1778055281 | 23.33° C | 33% | 1013.4 hPa | - | - | 24 W/m² | - |
| 1778054921 | 23.33° C | 35% | 1013.4 hPa | - | - | 23 W/m² | - |
| 1778054561 | 22.78° C | 35% | 1013.4 hPa | - | - | 23 W/m² | - |
| 1778054201 | 22.22° C | 36% | 1013.5 hPa | - | - | 24 W/m² | - |
| 1778053841 | 21.67° C | 37% | 1013.5 hPa | - | - | 24 W/m² | - |
| 1778053481 | 21.67° C | 37% | 1013.5 hPa | - | - | 25 W/m² | - |
| 1778053121 | 21.11° C | 38% | 1013.5 hPa | - | - | 25 W/m² | - |
| 1778052761 | 20.56° C | 39% | 1013.5 hPa | - | - | 25 W/m² | - |
| 1778052401 | 20.56° C | 40% | 1013.5 hPa | - | - | 25 W/m² | - |
| 1778052041 | 20° C | 40% | 1013.4 hPa | - | - | 25 W/m² | - |
| 1778051681 | 19.44° C | 41% | 1013.4 hPa | - | - | 25 W/m² | - |
| 1778051321 | 19.44° C | 41% | 1013.5 hPa | - | - | 26 W/m² | - |
| 1778050961 | 18.89° C | 41% | 1013.5 hPa | - | - | 25 W/m² | - |
| 1778050601 | 18.89° C | 42% | 1013.5 hPa | - | - | 25 W/m² | - |
| 1778050241 | 18.89° C | 42% | 1013.4 hPa | - | - | 25 W/m² | - |
* Rain since midnight (hover to see other rain measurements)
** Current wind speed in m/s (hover to see current wind gust speed)